sensor_id;sensor_type;location;lat;lon;timestamp;pressure;altitude;pressure_sealevel;temperature;humidity
73700;BME280;62005;50.082;8.988;2024-01-30T00:00:22;101967.09;;;2.01;98.63
73700;BME280;62005;50.082;8.988;2024-01-30T00:02:47;101958.50;;;1.97;98.43
73700;BME280;62005;50.082;8.988;2024-01-30T00:05:12;101955.38;;;1.92;98.62
73700;BME280;62005;50.082;8.988;2024-01-30T00:07:38;101949.72;;;1.86;98.89
73700;BME280;62005;50.082;8.988;2024-01-30T00:10:03;101974.50;;;1.97;98.37
73700;BME280;62005;50.082;8.988;2024-01-30T00:12:31;101954.19;;;1.85;98.35
73700;BME280;62005;50.082;8.988;2024-01-30T00:15:00;101971.38;;;1.92;99.12
73700;BME280;62005;50.082;8.988;2024-01-30T00:17:25;101967.16;;;1.90;98.79
73700;BME280;62005;50.082;8.988;2024-01-30T00:19:51;101965.59;;;1.87;99.13
73700;BME280;62005;50.082;8.988;2024-01-30T00:22:17;101961.50;;;1.83;99.12
73700;BME280;62005;50.082;8.988;2024-01-30T00:24:42;101973.59;;;1.87;99.33
73700;BME280;62005;50.082;8.988;2024-01-30T00:27:08;101966.25;;;1.80;99.70
73700;BME280;62005;50.082;8.988;2024-01-30T00:29:33;101968.78;;;1.81;99.24
73700;BME280;62005;50.082;8.988;2024-01-30T00:31:59;101972.66;;;1.77;100.00
73700;BME280;62005;50.082;8.988;2024-01-30T00:34:25;101964.66;;;1.77;99.56
73700;BME280;62005;50.082;8.988;2024-01-30T00:36:50;101953.78;;;1.69;99.22
73700;BME280;62005;50.082;8.988;2024-01-30T00:39:16;101954.78;;;1.68;99.81
73700;BME280;62005;50.082;8.988;2024-01-30T00:41:41;101948.72;;;1.66;99.51
73700;BME280;62005;50.082;8.988;2024-01-30T00:44:07;101970.50;;;1.71;99.58
73700;BME280;62005;50.082;8.988;2024-01-30T00:46:32;101962.50;;;1.71;99.65
73700;BME280;62005;50.082;8.988;2024-01-30T00:48:57;101964.44;;;1.69;99.37
73700;BME280;62005;50.082;8.988;2024-01-30T00:51:23;101962.50;;;1.71;99.92
73700;BME280;62005;50.082;8.988;2024-01-30T00:53:48;101961.06;;;1.67;99.59
73700;BME280;62005;50.082;8.988;2024-01-30T00:56:14;101956.25;;;1.61;100.00
73700;BME280;62005;50.082;8.988;2024-01-30T00:58:43;101972.44;;;1.69;100.00
73700;BME280;62005;50.082;8.988;2024-01-30T01:01:08;101971.25;;;1.62;99.70
73700;BME280;62005;50.082;8.988;2024-01-30T01:03:34;101977.03;;;1.67;100.00
73700;BME280;62005;50.082;8.988;2024-01-30T01:05:59;101960.97;;;1.58;100.00
73700;BME280;62005;50.082;8.988;2024-01-30T01:08:25;101970.56;;;1.60;100.00
73700;BME280;62005;50.082;8.988;2024-01-30T01:10:50;101977.81;;;1.58;100.00
73700;BME280;62005;50.082;8.988;2024-01-30T01:13:16;101973.34;;;1.59;100.00
73700;BME280;62005;50.082;8.988;2024-01-30T01:15:41;101963.63;;;1.58;100.00
73700;BME280;62005;50.082;8.988;2024-01-30T01:18:06;101966.56;;;1.55;100.00
73700;BME280;62005;50.082;8.988;2024-01-30T01:20:32;101969.94;;;1.57;100.00
73700;BME280;62005;50.082;8.988;2024-01-30T01:22:57;101970.09;;;1.55;100.00
73700;BME280;62005;50.082;8.988;2024-01-30T01:25:22;101976.09;;;1.57;100.00
73700;BME280;62005;50.082;8.988;2024-01-30T01:27:48;101982.28;;;1.58;100.00
73700;BME280;62005;50.082;8.988;2024-01-30T01:30:17;101978.06;;;1.55;100.00
73700;BME280;62005;50.082;8.988;2024-01-30T01:32:49;101975.19;;;1.47;100.00
73700;BME280;62005;50.082;8.988;2024-01-30T01:35:23;101976.63;;;1.51;100.00
73700;BME280;62005;50.082;8.988;2024-01-30T01:37:52;101980.28;;;1.50;100.00
73700;BME280;62005;50.082;8.988;2024-01-30T01:40:27;101975.19;;;1.47;100.00
73700;BME280;62005;50.082;8.988;2024-01-30T01:42:53;101963.09;;;1.43;100.00
73700;BME280;62005;50.082;8.988;2024-01-30T01:45:20;101969.13;;;1.45;100.00
73700;BME280;62005;50.082;8.988;2024-01-30T01:47:51;101964.06;;;1.42;100.00
73700;BME280;62005;50.082;8.988;2024-01-30T01:50:18;101966.00;;;1.40;100.00
73700;BME280;62005;50.082;8.988;2024-01-30T01:52:47;101968.66;;;1.40;100.00
73700;BME280;62005;50.082;8.988;2024-01-30T01:55:14;101961.63;;;1.39;100.00
73700;BME280;62005;50.082;8.988;2024-01-30T01:57:41;101973.25;;;1.38;100.00
73700;BME280;62005;50.082;8.988;2024-01-30T02:00:09;101967.22;;;1.36;100.00
73700;BME280;62005;50.082;8.988;2024-01-30T02:02:36;101975.69;;;1.41;99.88
73700;BME280;62005;50.082;8.988;2024-01-30T02:05:02;101968.66;;;1.40;99.71
73700;BME280;62005;50.082;8.988;2024-01-30T02:07:28;101966.94;;;1.39;99.80
73700;BME280;62005;50.082;8.988;2024-01-30T02:09:54;101954.16;;;1.33;100.00
73700;BME280;62005;50.082;8.988;2024-01-30T02:12:20;101941.34;;;1.27;99.94
73700;BME280;62005;50.082;8.988;2024-01-30T02:14:46;101958.75;;;1.31;99.89
73700;BME280;62005;50.082;8.988;2024-01-30T02:17:12;101955.13;;;1.32;99.95
73700;BME280;62005;50.082;8.988;2024-01-30T02:19:38;101948.84;;;1.22;100.00
73700;BME280;62005;50.082;8.988;2024-01-30T02:22:04;101951.50;;;1.22;100.00
73700;BME280;62005;50.082;8.988;2024-01-30T02:24:29;101966.25;;;1.26;100.00
73700;BME280;62005;50.082;8.988;2024-01-30T02:26:55;101954.44;;;1.19;100.00
73700;BME280;62005;50.082;8.988;2024-01-30T02:29:20;101963.13;;;1.21;100.00
73700;BME280;62005;50.082;8.988;2024-01-30T02:31:46;101957.09;;;1.19;100.00
73700;BME280;62005;50.082;8.988;2024-01-30T02:34:12;101944.50;;;1.10;100.00
73700;BME280;62005;50.082;8.988;2024-01-30T02:36:37;101942.81;;;1.09;100.00
73700;BME280;62005;50.082;8.988;2024-01-30T02:39:03;101947.91;;;1.12;100.00
73700;BME280;62005;50.082;8.988;2024-01-30T02:41:29;101928.78;;;1.07;100.00
73700;BME280;62005;50.082;8.988;2024-01-30T02:43:54;101936.66;;;1.08;100.00
73700;BME280;62005;50.082;8.988;2024-01-30T02:46:19;101949.56;;;1.13;100.00
73700;BME280;62005;50.082;8.988;2024-01-30T02:48:45;101933.38;;;1.05;100.00
73700;BME280;62005;50.082;8.988;2024-01-30T02:51:10;101934.22;;;1.05;100.00
73700;BME280;62005;50.082;8.988;2024-01-30T02:53:36;101933.50;;;1.03;100.00
73700;BME280;62005;50.082;8.988;2024-01-30T02:56:02;101948.16;;;1.09;100.00
73700;BME280;62005;50.082;8.988;2024-01-30T02:58:28;101937.97;;;1.03;100.00
73700;BME280;62005;50.082;8.988;2024-01-30T03:00:53;101932.16;;;0.98;100.00
73700;BME280;62005;50.082;8.988;2024-01-30T03:03:19;101930.38;;;0.98;100.00
73700;BME280;62005;50.082;8.988;2024-01-30T03:05:44;101940.41;;;0.95;100.00
73700;BME280;62005;50.082;8.988;2024-01-30T03:08:10;101939.44;;;0.96;100.00
73700;BME280;62005;50.082;8.988;2024-01-30T03:10:35;101938.50;;;0.86;100.00
73700;BME280;62005;50.082;8.988;2024-01-30T03:13:00;101952.16;;;0.92;100.00
73700;BME280;62005;50.082;8.988;2024-01-30T03:15:26;101947.19;;;0.88;100.00
73700;BME280;62005;50.082;8.988;2024-01-30T03:17:52;101941.16;;;0.86;100.00
73700;BME280;62005;50.082;8.988;2024-01-30T03:20:18;101954.94;;;0.91;100.00
73700;BME280;62005;50.082;8.988;2024-01-30T03:22:43;101948.41;;;0.84;100.00
73700;BME280;62005;50.082;8.988;2024-01-30T03:25:09;101947.44;;;0.85;100.00
73700;BME280;62005;50.082;8.988;2024-01-30T03:27:34;101941.38;;;0.83;100.00
73700;BME280;62005;50.082;8.988;2024-01-30T03:29:59;101943.47;;;0.79;100.00
73700;BME280;62005;50.082;8.988;2024-01-30T03:32:25;101938.00;;;0.81;100.00
73700;BME280;62005;50.082;8.988;2024-01-30T03:34:50;101945.28;;;0.79;100.00
73700;BME280;62005;50.082;8.988;2024-01-30T03:37:16;101943.81;;;0.75;100.00
73700;BME280;62005;50.082;8.988;2024-01-30T03:39:41;101941.63;;;0.69;99.91
73700;BME280;62005;50.082;8.988;2024-01-30T03:42:06;101947.44;;;0.74;100.00
73700;BME280;62005;50.082;8.988;2024-01-30T03:44:32;101945.16;;;0.69;100.00
73700;BME280;62005;50.082;8.988;2024-01-30T03:46:57;101944.53;;;0.66;99.90
73700;BME280;62005;50.082;8.988;2024-01-30T03:49:23;101954.94;;;0.69;100.00
73700;BME280;62005;50.082;8.988;2024-01-30T03:51:48;101958.34;;;0.71;100.00
73700;BME280;62005;50.082;8.988;2024-01-30T03:54:14;101948.03;;;0.66;100.00
73700;BME280;62005;50.082;8.988;2024-01-30T03:56:39;101944.66;;;0.64;100.00
73700;BME280;62005;50.082;8.988;2024-01-30T03:59:04;101955.44;;;0.63;100.00
73700;BME280;62005;50.082;8.988;2024-01-30T04:01:30;101947.31;;;0.64;100.00
73700;BME280;62005;50.082;8.988;2024-01-30T04:03:55;101953.47;;;0.65;100.00
73700;BME280;62005;50.082;8.988;2024-01-30T04:06:21;101951.78;;;0.64;100.00
73700;BME280;62005;50.082;8.988;2024-01-30T04:08:46;101949.88;;;0.66;100.00
73700;BME280;62005;50.082;8.988;2024-01-30T04:11:11;101947.44;;;0.63;100.00
73700;BME280;62005;50.082;8.988;2024-01-30T04:13:37;101953.47;;;0.65;100.00
73700;BME280;62005;50.082;8.988;2024-01-30T04:16:02;101946.00;;;0.59;100.00
73700;BME280;62005;50.082;8.988;2024-01-30T04:18:29;101946.00;;;0.59;100.00
73700;BME280;62005;50.082;8.988;2024-01-30T04:20:54;101936.31;;;0.58;100.00
73700;BME280;62005;50.082;8.988;2024-01-30T04:23:19;101948.66;;;0.59;100.00
73700;BME280;62005;50.082;8.988;2024-01-30T04:25:45;101941.66;;;0.58;100.00
73700;BME280;62005;50.082;8.988;2024-01-30T04:28:10;101936.53;;;0.55;100.00
73700;BME280;62005;50.082;8.988;2024-01-30T04:30:39;101939.19;;;0.55;100.00
73700;BME280;62005;50.082;8.988;2024-01-30T04:33:05;101952.28;;;0.58;100.00
73700;BME280;62005;50.082;8.988;2024-01-30T04:35:30;101943.31;;;0.59;100.00
73700;BME280;62005;50.082;8.988;2024-01-30T04:37:56;101923.59;;;0.50;100.00
73700;BME280;62005;50.082;8.988;2024-01-30T04:40:21;101938.50;;;0.53;100.00
73700;BME280;62005;50.082;8.988;2024-01-30T04:42:47;101933.38;;;0.50;100.00
73700;BME280;62005;50.082;8.988;2024-01-30T04:45:12;101942.09;;;0.52;100.00
73700;BME280;62005;50.082;8.988;2024-01-30T04:47:37;101940.66;;;0.48;100.00
73700;BME280;62005;50.082;8.988;2024-01-30T04:50:05;101941.63;;;0.47;100.00
73700;BME280;62005;50.082;8.988;2024-01-30T04:52:31;101938.97;;;0.47;100.00
73700;BME280;62005;50.082;8.988;2024-01-30T04:54:57;101942.59;;;0.46;100.00
73700;BME280;62005;50.082;8.988;2024-01-30T04:57:24;101958.31;;;0.49;100.00
73700;BME280;62005;50.082;8.988;2024-01-30T04:59:49;101943.66;;;0.43;100.00
73700;BME280;62005;50.082;8.988;2024-01-30T05:02:15;101953.22;;;0.46;100.00
73700;BME280;62005;50.082;8.988;2024-01-30T05:04:41;101949.84;;;0.44;100.00
73700;BME280;62005;50.082;8.988;2024-01-30T05:07:06;101953.97;;;0.48;100.00
73700;BME280;62005;50.082;8.988;2024-01-30T05:09:32;101954.66;;;0.50;100.00
73700;BME280;62005;50.082;8.988;2024-01-30T05:11:57;101961.69;;;0.51;100.00
73700;BME280;62005;50.082;8.988;2024-01-30T05:14:23;101952.13;;;0.48;100.00
73700;BME280;62005;50.082;8.988;2024-01-30T05:16:49;101950.44;;;0.47;100.00
73700;BME280;62005;50.082;8.988;2024-01-30T05:19:14;101958.31;;;0.49;100.00
73700;BME280;62005;50.082;8.988;2024-01-30T05:21:41;101960.00;;;0.50;100.00
73700;BME280;62005;50.082;8.988;2024-01-30T05:24:07;101956.84;;;0.45;100.00
73700;BME280;62005;50.082;8.988;2024-01-30T05:26:35;101951.75;;;0.42;100.00
73700;BME280;62005;50.082;8.988;2024-01-30T05:29:00;101960.22;;;0.47;100.00
73700;BME280;62005;50.082;8.988;2024-01-30T05:31:25;101962.91;;;0.47;100.00
73700;BME280;62005;50.082;8.988;2024-01-30T05:33:52;101965.56;;;0.47;100.00
73700;BME280;62005;50.082;8.988;2024-01-30T05:36:17;101968.94;;;0.49;100.00
73700;BME280;62005;50.082;8.988;2024-01-30T05:38:43;101960.47;;;0.44;100.00
73700;BME280;62005;50.082;8.988;2024-01-30T05:41:09;101962.41;;;0.42;100.00
73700;BME280;62005;50.082;8.988;2024-01-30T05:43:35;101964.81;;;0.45;100.00
73700;BME280;62005;50.082;8.988;2024-01-30T05:46:00;101964.13;;;0.43;100.00
73700;BME280;62005;50.082;8.988;2024-01-30T05:48:26;101969.44;;;0.43;100.00
73700;BME280;62005;50.082;8.988;2024-01-30T05:50:51;101960.97;;;0.38;100.00
73700;BME280;62005;50.082;8.988;2024-01-30T05:53:16;101966.03;;;0.41;100.00
73700;BME280;62005;50.082;8.988;2024-01-30T05:55:42;101962.66;;;0.39;100.00
73700;BME280;62005;50.082;8.988;2024-01-30T05:58:07;101947.41;;;0.30;100.00
73700;BME280;62005;50.082;8.988;2024-01-30T06:00:33;101958.53;;;0.35;100.00
73700;BME280;62005;50.082;8.988;2024-01-30T06:02:58;101954.66;;;0.28;100.00
73700;BME280;62005;50.082;8.988;2024-01-30T06:05:23;101965.78;;;0.33;100.00
73700;BME280;62005;50.082;8.988;2024-01-30T06:07:49;101968.44;;;0.33;100.00
73700;BME280;62005;50.082;8.988;2024-01-30T06:10:14;101976.19;;;0.36;100.00
73700;BME280;62005;50.082;8.988;2024-01-30T06:12:40;101978.84;;;0.36;100.00
73700;BME280;62005;50.082;8.988;2024-01-30T06:15:06;101971.84;;;0.35;100.00
73700;BME280;62005;50.082;8.988;2024-01-30T06:17:31;101970.88;;;0.36;100.00
73700;BME280;62005;50.082;8.988;2024-01-30T06:19:57;101970.63;;;0.39;100.00
73700;BME280;62005;50.082;8.988;2024-01-30T06:22:23;101973.28;;;0.39;100.00
73700;BME280;62005;50.082;8.988;2024-01-30T06:24:48;101978.34;;;0.42;100.00
73700;BME280;62005;50.082;8.988;2024-01-30T06:27:14;101975.22;;;0.37;100.00
73700;BME280;62005;50.082;8.988;2024-01-30T06:29:40;101980.53;;;0.37;100.00
73700;BME280;62005;50.082;8.988;2024-01-30T06:32:06;101976.91;;;0.38;100.00
73700;BME280;62005;50.082;8.988;2024-01-30T06:34:31;101975.09;;;0.38;100.00
73700;BME280;62005;50.082;8.988;2024-01-30T06:36:56;101979.34;;;0.41;100.00
73700;BME280;62005;50.082;8.988;2024-01-30T06:39:22;101968.31;;;0.34;100.00
73700;BME280;62005;50.082;8.988;2024-01-30T06:41:48;101962.28;;;0.32;100.00
73700;BME280;62005;50.082;8.988;2024-01-30T06:44:14;101967.47;;;0.34;100.00
73700;BME280;62005;50.082;8.988;2024-01-30T06:46:40;101956.34;;;0.29;100.00
73700;BME280;62005;50.082;8.988;2024-01-30T06:49:05;101971.94;;;0.33;100.00
73700;BME280;62005;50.082;8.988;2024-01-30T06:51:31;101959.97;;;0.28;100.00
73700;BME280;62005;50.082;8.988;2024-01-30T06:53:56;101965.06;;;0.31;100.00
73700;BME280;62005;50.082;8.988;2024-01-30T06:56:22;101974.00;;;0.30;100.00
73700;BME280;62005;50.082;8.988;2024-01-30T06:58:48;101964.56;;;0.26;100.00
73700;BME280;62005;50.082;8.988;2024-01-30T07:01:14;101963.81;;;0.24;100.00
73700;BME280;62005;50.082;8.988;2024-01-30T07:03:40;101956.69;;;0.24;100.00
73700;BME280;62005;50.082;8.988;2024-01-30T07:06:05;101950.28;;;0.16;100.00
73700;BME280;62005;50.082;8.988;2024-01-30T07:08:31;101968.91;;;0.27;100.00
73700;BME280;62005;50.082;8.988;2024-01-30T07:10:56;101972.41;;;0.27;100.00
73700;BME280;62005;50.082;8.988;2024-01-30T07:13:21;101971.06;;;0.22;100.00
73700;BME280;62005;50.082;8.988;2024-01-30T07:15:47;101972.53;;;0.26;100.00
73700;BME280;62005;50.082;8.988;2024-01-30T07:18:12;101965.28;;;0.28;100.00
73700;BME280;62005;50.082;8.988;2024-01-30T07:20:39;101957.69;;;0.23;100.00
73700;BME280;62005;50.082;8.988;2024-01-30T07:23:15;101952.69;;;0.19;100.00
73700;BME280;62005;50.082;8.988;2024-01-30T07:25:45;101981.88;;;0.31;100.00
73700;BME280;62005;50.082;8.988;2024-01-30T07:28:10;101979.31;;;0.30;100.00
73700;BME280;62005;50.082;8.988;2024-01-30T07:30:37;101981.25;;;0.28;100.00
73700;BME280;62005;50.082;8.988;2024-01-30T07:33:02;101973.16;;;0.29;100.00
73700;BME280;62005;50.082;8.988;2024-01-30T07:35:28;101982.47;;;0.35;100.00
73700;BME280;62005;50.082;8.988;2024-01-30T07:37:53;101964.56;;;0.26;100.00
73700;BME280;62005;50.082;8.988;2024-01-30T07:40:19;101973.78;;;0.33;100.00
73700;BME280;62005;50.082;8.988;2024-01-30T07:42:44;101980.31;;;0.40;100.00
73700;BME280;62005;50.082;8.988;2024-01-30T07:45:10;101974.50;;;0.35;100.00
73700;BME280;62005;50.082;8.988;2024-01-30T07:47:35;101978.34;;;0.42;100.00
73700;BME280;62005;50.082;8.988;2024-01-30T07:50:01;101984.16;;;0.47;100.00
73700;BME280;62005;50.082;8.988;2024-01-30T07:52:27;101971.13;;;0.44;100.00
73700;BME280;62005;50.082;8.988;2024-01-30T07:54:52;101963.25;;;0.42;100.00
73700;BME280;62005;50.082;8.988;2024-01-30T07:57:18;101946.06;;;0.35;100.00
73700;BME280;62005;50.082;8.988;2024-01-30T07:59:44;101955.88;;;0.46;100.00
73700;BME280;62005;50.082;8.988;2024-01-30T08:02:11;101980.56;;;0.59;100.00
73700;BME280;62005;50.082;8.988;2024-01-30T08:04:37;101977.66;;;0.62;100.00
73700;BME280;62005;50.082;8.988;2024-01-30T08:07:02;101976.47;;;0.66;100.00
73700;BME280;62005;50.082;8.988;2024-01-30T08:09:28;101971.41;;;0.63;100.00
73700;BME280;62005;50.082;8.988;2024-01-30T08:11:53;101975.00;;;0.73;100.00
73700;BME280;62005;50.082;8.988;2024-01-30T08:14:19;101949.38;;;0.61;100.00
73700;BME280;62005;50.082;8.988;2024-01-30T08:16:44;101968.72;;;0.74;100.00
73700;BME280;62005;50.082;8.988;2024-01-30T08:19:10;101946.22;;;0.67;100.00
73700;BME280;62005;50.082;8.988;2024-01-30T08:21:35;101978.78;;;0.92;100.00
73700;BME280;62005;50.082;8.988;2024-01-30T08:24:04;101981.06;;;0.97;100.00
73700;BME280;62005;50.082;8.988;2024-01-30T08:26:31;101992.69;;;1.07;100.00
73700;BME280;62005;50.082;8.988;2024-01-30T08:28:56;101984.56;;;1.08;100.00
73700;BME280;62005;50.082;8.988;2024-01-30T08:31:22;101997.03;;;1.19;100.00
73700;BME280;62005;50.082;8.988;2024-01-30T08:33:48;102003.53;;;1.26;100.00
73700;BME280;62005;50.082;8.988;2024-01-30T08:36:13;102001.09;;;1.34;100.00
73700;BME280;62005;50.082;8.988;2024-01-30T08:38:38;101993.59;;;1.39;100.00
73700;BME280;62005;50.082;8.988;2024-01-30T08:41:04;101998.69;;;1.42;100.00
73700;BME280;62005;50.082;8.988;2024-01-30T08:43:30;102004.25;;;1.50;100.00
73700;BME280;62005;50.082;8.988;2024-01-30T08:45:59;102006.41;;;1.56;100.00
73700;BME280;62005;50.082;8.988;2024-01-30T08:48:25;102005.88;;;1.62;100.00
73700;BME280;62005;50.082;8.988;2024-01-30T08:50:50;102009.75;;;1.69;100.00
73700;BME280;62005;50.082;8.988;2024-01-30T08:53:16;102008.53;;;1.73;100.00
73700;BME280;62005;50.082;8.988;2024-01-30T08:55:44;102008.28;;;1.76;100.00
73700;BME280;62005;50.082;8.988;2024-01-30T08:58:11;102003.44;;;1.81;100.00
73700;BME280;62005;50.082;8.988;2024-01-30T09:00:36;102001.09;;;1.88;100.00
73700;BME280;62005;50.082;8.988;2024-01-30T09:03:03;101987.16;;;1.84;100.00
73700;BME280;62005;50.082;8.988;2024-01-30T09:05:31;101975.44;;;1.76;100.00
73700;BME280;62005;50.082;8.988;2024-01-30T09:07:59;102016.44;;;2.06;100.00
73700;BME280;62005;50.082;8.988;2024-01-30T09:10:25;101996.78;;;2.07;100.00
73700;BME280;62005;50.082;8.988;2024-01-30T09:12:50;101990.56;;;2.07;100.00
73700;BME280;62005;50.082;8.988;2024-01-30T09:15:16;101998.34;;;2.10;100.00
73700;BME280;62005;50.082;8.988;2024-01-30T09:17:41;102011.94;;;2.27;100.00
73700;BME280;62005;50.082;8.988;2024-01-30T09:20:07;102019.44;;;2.33;100.00
73700;BME280;62005;50.082;8.988;2024-01-30T09:22:34;101993.53;;;2.24;100.00
73700;BME280;62005;50.082;8.988;2024-01-30T09:24:59;102012.72;;;2.39;100.00
73700;BME280;62005;50.082;8.988;2024-01-30T09:27:28;101992.47;;;2.36;100.00
73700;BME280;62005;50.082;8.988;2024-01-30T09:29:53;102006.03;;;2.44;100.00
73700;BME280;62005;50.082;8.988;2024-01-30T09:32:19;102010.84;;;2.50;100.00
73700;BME280;62005;50.082;8.988;2024-01-30T09:34:44;102008.38;;;2.58;100.00
73700;BME280;62005;50.082;8.988;2024-01-30T09:37:10;102006.16;;;2.63;100.00
73700;BME280;62005;50.082;8.988;2024-01-30T09:39:36;102002.25;;;2.67;100.00
73700;BME280;62005;50.082;8.988;2024-01-30T09:44:47;102016.94;;;2.83;100.00
73700;BME280;62005;50.082;8.988;2024-01-30T09:47:14;102007.94;;;2.84;100.00
73700;BME280;62005;50.082;8.988;2024-01-30T09:49:42;102013.03;;;2.87;100.00
73700;BME280;62005;50.082;8.988;2024-01-30T09:52:08;102007.41;;;2.90;100.00
73700;BME280;62005;50.082;8.988;2024-01-30T09:54:34;102008.84;;;2.94;100.00
73700;BME280;62005;50.082;8.988;2024-01-30T09:57:00;101996.44;;;2.93;100.00
73700;BME280;62005;50.082;8.988;2024-01-30T09:59:25;102000.44;;;2.98;100.00
73700;BME280;62005;50.082;8.988;2024-01-30T10:01:51;101989.75;;;2.98;100.00
73700;BME280;62005;50.082;8.988;2024-01-30T10:04:17;102006.97;;;3.15;100.00
73700;BME280;62005;50.082;8.988;2024-01-30T10:06:42;101992.50;;;3.17;100.00
73700;BME280;62005;50.082;8.988;2024-01-30T10:09:08;101998.28;;;3.22;100.00
73700;BME280;62005;50.082;8.988;2024-01-30T10:11:36;102005.34;;;3.33;100.00
73700;BME280;62005;50.082;8.988;2024-01-30T10:14:01;101992.69;;;3.35;100.00
73700;BME280;62005;50.082;8.988;2024-01-30T10:16:27;102002.53;;;3.44;100.00
73700;BME280;62005;50.082;8.988;2024-01-30T10:18:52;102007.34;;;3.50;100.00
73700;BME280;62005;50.082;8.988;2024-01-30T10:21:18;101991.03;;;3.53;100.00
73700;BME280;62005;50.082;8.988;2024-01-30T10:23:43;101999.94;;;3.63;100.00
73700;BME280;62005;50.082;8.988;2024-01-30T10:26:12;102000.06;;;3.71;100.00
73700;BME280;62005;50.082;8.988;2024-01-30T10:28:37;101993.06;;;3.79;100.00
73700;BME280;62005;50.082;8.988;2024-01-30T10:31:03;101986.31;;;3.85;100.00
73700;BME280;62005;50.082;8.988;2024-01-30T10:33:31;102004.59;;;3.99;100.00
73700;BME280;62005;50.082;8.988;2024-01-30T10:36:02;101989.69;;;4.06;100.00
73700;BME280;62005;50.082;8.988;2024-01-30T10:38:29;101980.38;;;4.10;100.00
73700;BME280;62005;50.082;8.988;2024-01-30T10:41:01;101984.03;;;4.19;100.00
73700;BME280;62005;50.082;8.988;2024-01-30T10:43:35;101986.56;;;4.30;100.00
73700;BME280;62005;50.082;8.988;2024-01-30T10:46:11;101986.84;;;4.36;100.00
73700;BME280;62005;50.082;8.988;2024-01-30T10:48:43;101986.97;;;4.44;100.00
73700;BME280;62005;50.082;8.988;2024-01-30T10:51:15;101929.41;;;4.21;100.00
73700;BME280;62005;50.082;8.988;2024-01-30T10:53:44;101978.47;;;4.58;100.00
73700;BME280;62005;50.082;8.988;2024-01-30T10:56:12;101975.25;;;4.64;100.00
73700;BME280;62005;50.082;8.988;2024-01-30T10:58:38;101964.94;;;4.69;100.00
73700;BME280;62005;50.082;8.988;2024-01-30T11:01:05;101976.31;;;4.81;100.00
73700;BME280;62005;50.082;8.988;2024-01-30T11:03:32;101976.84;;;4.84;100.00
73700;BME280;62005;50.082;8.988;2024-01-30T11:06:00;101970.31;;;4.96;100.00
73700;BME280;62005;50.082;8.988;2024-01-30T11:08:26;101966.38;;;5.00;100.00
73700;BME280;62005;50.082;8.988;2024-01-30T11:10:56;101966.88;;;5.13;100.00
73700;BME280;62005;50.082;8.988;2024-01-30T11:13:27;101956.13;;;5.13;100.00
73700;BME280;62005;50.082;8.988;2024-01-30T11:15:53;101967.34;;;5.26;100.00
73700;BME280;62005;50.082;8.988;2024-01-30T11:18:31;101962.38;;;5.31;100.00
73700;BME280;62005;50.082;8.988;2024-01-30T11:21:00;101967.53;;;5.43;100.00
73700;BME280;62005;50.082;8.988;2024-01-30T11:23:29;101972.31;;;5.49;100.00
73700;BME280;62005;50.082;8.988;2024-01-30T11:25:56;101960.66;;;5.58;100.00
73700;BME280;62005;50.082;8.988;2024-01-30T11:28:22;101949.94;;;5.58;100.00
73700;BME280;62005;50.082;8.988;2024-01-30T11:30:48;101968.47;;;5.69;100.00
73700;BME280;62005;50.082;8.988;2024-01-30T11:33:27;101953.78;;;5.73;100.00
73700;BME280;62005;50.082;8.988;2024-01-30T11:35:57;101975.59;;;5.87;100.00
73700;BME280;62005;50.082;8.988;2024-01-30T11:38:25;101974.84;;;5.95;100.00
73700;BME280;62005;50.082;8.988;2024-01-30T11:40:51;101963.25;;;5.94;100.00
73700;BME280;62005;50.082;8.988;2024-01-30T11:43:18;101966.84;;;6.03;100.00
73700;BME280;62005;50.082;8.988;2024-01-30T11:45:44;101963.91;;;6.14;100.00
73700;BME280;62005;50.082;8.988;2024-01-30T11:48:12;101939.75;;;6.14;100.00
73700;BME280;62005;50.082;8.988;2024-01-30T11:50:39;101929.25;;;6.20;100.00
73700;BME280;62005;50.082;8.988;2024-01-30T11:53:07;101941.31;;;6.42;100.00
73700;BME280;62005;50.082;8.988;2024-01-30T11:55:33;101951.19;;;6.59;100.00
73700;BME280;62005;50.082;8.988;2024-01-30T11:58:01;101951.91;;;6.69;100.00
73700;BME280;62005;50.082;8.988;2024-01-30T12:00:27;101936.16;;;6.74;100.00
73700;BME280;62005;50.082;8.988;2024-01-30T12:02:54;101938.75;;;6.92;100.00
73700;BME280;62005;50.082;8.988;2024-01-30T12:05:22;101932.94;;;7.04;100.00
73700;BME280;62005;50.082;8.988;2024-01-30T12:07:48;101926.59;;;7.13;100.00
73700;BME280;62005;50.082;8.988;2024-01-30T12:10:14;101930.34;;;7.28;98.98
73700;BME280;62005;50.082;8.988;2024-01-30T12:12:42;101913.22;;;7.37;96.58
73700;BME280;62005;50.082;8.988;2024-01-30T12:15:08;101917.28;;;7.49;97.09
73700;BME280;62005;50.082;8.988;2024-01-30T12:17:34;101901.50;;;7.62;96.84
73700;BME280;62005;50.082;8.988;2024-01-30T12:20:06;101890.72;;;7.62;96.18
73700;BME280;62005;50.082;8.988;2024-01-30T12:22:45;101894.09;;;7.72;96.16
73700;BME280;62005;50.082;8.988;2024-01-30T12:25:12;101891.25;;;7.82;95.08
73700;BME280;62005;50.082;8.988;2024-01-30T12:27:38;101887.06;;;7.87;95.47
73700;BME280;62005;50.082;8.988;2024-01-30T12:32:39;101886.53;;;7.92;94.39
73700;BME280;62005;50.082;8.988;2024-01-30T12:35:15;101904.88;;;8.13;93.62
73700;BME280;62005;50.082;8.988;2024-01-30T12:37:43;101909.59;;;8.19;94.06
73700;BME280;62005;50.082;8.988;2024-01-30T12:40:09;101906.28;;;8.25;93.70
73700;BME280;62005;50.082;8.988;2024-01-30T12:42:35;101908.44;;;8.29;94.07
73700;BME280;62005;50.082;8.988;2024-01-30T12:45:04;101899.16;;;8.32;92.53
73700;BME280;62005;50.082;8.988;2024-01-30T12:47:30;101894.78;;;8.39;92.50
73700;BME280;62005;50.082;8.988;2024-01-30T12:49:56;101893.09;;;8.46;91.22
73700;BME280;62005;50.082;8.988;2024-01-30T12:52:22;101881.28;;;8.47;91.72